Time;durP1;ratioP1;P1;durP2;ratioP2;P2;SDS_P1;SDS_P2;PMS_P1;PMS_P2;Temp;Humidity;BMP_temperature;BMP_pressure;BME280_temperature;BME280_humidity;BME280_pressure;Samples;Min_cycle;Max_cycle;Signal;HPM_P1;HPM_P2
2022/08/14 00:00:17;;;;;;;9.10;4.88;;;;;;;22.55;56.38;101167.69;5033871;28;20057;-73
2022/08/14 00:02:43;;;;;;;9.52;4.72;;;;;;;22.67;55.80;101163.00;5033635;28;20025;-74
2022/08/14 00:05:10;;;;;;;7.60;4.90;;;;;;;22.62;56.11;101163.78;5032250;28;20024;-73
2022/08/14 00:07:36;;;;;;;8.95;4.93;;;;;;;22.71;55.97;101158.81;5033484;28;20031;-74
2022/08/14 00:10:04;;;;;;;6.32;4.70;;;;;;;22.68;56.22;101157.47;5033491;28;20044;-73
2022/08/14 00:12:32;;;;;;;7.13;4.60;;;;;;;22.59;56.57;101163.50;5032114;28;20362;-73
2022/08/14 00:14:58;;;;;;;8.35;4.68;;;;;;;22.47;56.69;101155.81;5033360;28;20103;-73
2022/08/14 00:17:23;;;;;;;15.98;5.22;;;;;;;22.47;56.27;101145.28;5033403;28;20026;-73
2022/08/14 00:19:49;;;;;;;7.93;5.07;;;;;;;22.37;56.49;101140.75;5033559;28;20025;-73
2022/08/14 00:22:17;;;;;;;9.02;4.80;;;;;;;22.44;56.71;101143.97;5031948;28;20083;-73
2022/08/14 00:24:43;;;;;;;7.70;4.95;;;;;;;22.44;56.61;101143.16;5033312;28;20048;-73
2022/08/14 00:27:09;;;;;;;8.00;4.90;;;;;;;22.50;56.31;101131.63;5031968;28;20071;-73
2022/08/14 00:29:34;;;;;;;7.07;5.40;;;;;;;22.37;56.57;101138.13;5033215;28;20029;-73
2022/08/14 00:31:59;;;;;;;6.45;4.93;;;;;;;22.33;56.88;101131.81;5033206;28;20064;-73
2022/08/14 00:34:25;;;;;;;10.90;5.30;;;;;;;22.32;56.96;101130.19;5033189;28;20030;-73
2022/08/14 00:36:50;;;;;;;6.82;5.18;;;;;;;22.12;57.47;101117.72;5031910;28;20025;-74
2022/08/14 00:39:16;;;;;;;9.13;5.22;;;;;;;22.11;57.91;101121.41;5031739;28;20507;-74
2022/08/14 00:41:42;;;;;;;7.43;5.20;;;;;;;22.22;57.25;101120.44;5033015;28;20473;-73
2022/08/14 00:44:07;;;;;;;7.95;5.30;;;;;;;22.24;57.52;101117.53;5031768;28;20029;-73
2022/08/14 00:46:32;;;;;;;8.77;5.30;;;;;;;22.05;57.66;101115.31;5031789;28;20033;-73
2022/08/14 00:48:58;;;;;;;7.70;5.32;;;;;;;22.00;58.13;101117.91;5031879;28;20461;-73
2022/08/14 00:51:24;;;;;;;7.80;4.95;;;;;;;21.95;58.50;101114.47;5033065;28;20072;-72
2022/08/14 00:53:49;;;;;;;8.57;5.40;;;;;;;21.84;58.40;101109.16;5031562;28;20033;-72
2022/08/14 00:56:17;;;;;;;9.40;5.40;;;;;;;21.96;57.95;101108.16;5033102;28;20026;-72
2022/08/14 00:58:43;;;;;;;9.85;5.60;;;;;;;21.86;58.35;101111.50;5033036;28;20499;-73
2022/08/14 01:01:10;;;;;;;8.65;5.70;;;;;;;21.80;58.41;101110.69;5035385;28;20022;-72
2022/08/14 01:03:38;;;;;;;8.75;5.57;;;;;;;21.82;58.28;101102.56;5035616;28;20535;-73
2022/08/14 01:06:08;;;;;;;11.60;5.68;;;;;;;21.88;58.13;101101.53;5035632;28;20026;-73
2022/08/14 01:08:35;;;;;;;14.23;5.47;;;;;;;21.82;58.50;101099.94;5036800;28;20036;-73
2022/08/14 01:11:02;;;;;;;9.73;5.43;;;;;;;21.88;57.94;101096.28;5035550;28;20021;-72
2022/08/14 01:13:42;;;;;;;7.18;5.60;;;;;;;21.71;58.09;101088.53;5035489;28;20025;-72
2022/08/14 01:16:11;;;;;;;8.02;5.55;;;;;;;21.74;58.35;101088.03;5036626;28;20481;-72
2022/08/14 01:21:30;;;;;;;9.25;5.35;;;;;;;21.74;58.03;101081.97;5036811;28;20461;-73
2022/08/14 01:23:55;;;;;;;10.75;6.15;;;;;;;21.71;57.58;101078.03;5035310;28;20028;-73
2022/08/14 01:26:22;;;;;;;8.75;5.53;;;;;;;21.68;57.61;101075.91;5036478;28;20447;-72
2022/08/14 01:28:54;;;;;;;13.57;5.80;;;;;;;21.74;57.56;101071.47;5036390;28;20040;-73
2022/08/14 01:31:21;;;;;;;6.97;5.68;;;;;;;21.82;57.44;101071.78;5034991;28;20021;-73
2022/08/14 01:33:49;;;;;;;8.65;5.68;;;;;;;21.79;57.74;101071.50;5035170;28;20483;-73
2022/08/14 01:36:16;;;;;;;9.15;5.85;;;;;;;21.75;57.92;101063.34;5036330;28;20056;-73
2022/08/14 01:38:46;;;;;;;6.80;5.63;;;;;;;21.71;58.04;101062.25;5036198;28;20033;-73
2022/08/14 01:41:16;;;;;;;10.90;5.78;;;;;;;21.61;58.28;101064.81;5036111;28;20104;-72
2022/08/14 01:44:04;;;;;;;11.68;5.88;;;;;;;21.56;58.58;101049.78;5034890;28;20025;-73
2022/08/14 01:46:34;;;;;;;11.73;5.68;;;;;;;21.47;58.89;101059.19;5034852;28;20025;-73
2022/08/14 01:49:02;;;;;;;11.25;6.07;;;;;;;21.40;59.10;101056.00;5035863;28;20025;-73
2022/08/14 01:51:31;;;;;;;7.32;5.55;;;;;;;21.54;58.86;101046.63;5034817;28;20030;-73
2022/08/14 01:54:00;;;;;;;10.55;6.22;;;;;;;21.60;58.77;101045.59;5035834;28;20036;-73
2022/08/14 01:56:35;;;;;;;8.18;5.60;;;;;;;21.58;59.06;101041.66;5035975;28;20034;-73
2022/08/14 01:59:01;;;;;;;9.07;6.10;;;;;;;21.52;59.55;101042.66;5035913;28;20017;-73
2022/08/14 02:01:27;;;;;;;7.00;5.57;;;;;;;21.49;59.83;101038.72;5034556;28;20387;-74
2022/08/14 02:03:52;;;;;;;8.73;5.78;;;;;;;21.46;60.05;101047.09;5035757;28;20108;-72
2022/08/14 02:06:17;;;;;;;8.35;6.13;;;;;;;21.36;60.38;101036.50;5034534;28;20076;-72
2022/08/14 02:08:43;;;;;;;9.25;6.03;;;;;;;21.37;60.35;101036.25;5034359;28;20033;-72
2022/08/14 02:11:17;;;;;;;9.32;6.07;;;;;;;21.50;59.96;101024.53;5033363;28;20380;-72
2022/08/14 02:13:45;;;;;;;9.77;5.93;;;;;;;21.38;60.01;101037.84;5034358;28;20029;-72
2022/08/14 02:16:11;;;;;;;7.55;6.18;;;;;;;21.40;60.47;101038.38;5035687;28;20049;-72
2022/08/14 02:18:36;;;;;;;7.10;5.70;;;;;;;21.37;60.98;101032.84;5035423;28;20075;-72
2022/08/14 02:21:03;;;;;;;13.60;5.80;;;;;;;21.26;61.29;101031.16;5035472;28;20031;-72
2022/08/14 02:23:30;;;;;;;7.88;5.72;;;;;;;21.12;62.12;101041.31;5035433;28;20364;-72
2022/08/14 02:25:58;;;;;;;9.93;6.22;;;;;;;21.13;61.70;101033.16;5034092;28;20036;-73
2022/08/14 02:28:24;;;;;;;9.55;6.07;;;;;;;21.12;61.84;101028.97;5034020;28;20025;-73
2022/08/14 02:30:50;;;;;;;8.40;6.20;;;;;;;21.04;62.58;101031.25;5035332;28;20100;-73
2022/08/14 02:33:17;;;;;;;11.32;6.40;;;;;;;20.92;63.22;101031.41;5033888;28;20128;-73
2022/08/14 02:35:42;;;;;;;6.75;5.85;;;;;;;20.96;62.87;101029.88;5033960;28;20025;-73
2022/08/14 02:38:08;;;;;;;11.10;6.05;;;;;;;20.79;63.31;101024.72;5035136;28;20384;-73
2022/08/14 02:40:34;;;;;;;8.30;6.25;;;;;;;20.88;63.53;101028.47;5033717;28;20026;-73
2022/08/14 02:43:01;;;;;;;10.32;6.28;;;;;;;20.84;63.67;101030.03;5035119;28;20083;-73
2022/08/14 02:45:35;;;;;;;13.02;6.13;;;;;;;21.00;63.20;101032.78;5035092;28;20080;-73
2022/08/14 02:48:05;;;;;;;7.68;6.22;;;;;;;20.74;63.97;101032.56;5033587;28;20094;-72
2022/08/14 02:50:31;;;;;;;9.38;6.07;;;;;;;20.57;64.27;101027.44;5033617;28;20435;-73
2022/08/14 02:52:56;;;;;;;9.27;6.13;;;;;;;20.59;64.58;101029.78;5034805;28;20128;-72
2022/08/14 02:55:22;;;;;;;9.57;6.65;;;;;;;20.32;65.47;101024.50;5033476;28;20163;-73
2022/08/14 02:57:53;;;;;;;9.68;6.68;;;;;;;20.64;64.42;101021.97;5034745;28;20028;-73
2022/08/14 03:00:21;;;;;;;9.95;6.60;;;;;;;20.60;64.85;101028.72;5033426;28;20531;-73
2022/08/14 03:02:47;;;;;;;9.25;6.57;;;;;;;20.54;64.92;101021.84;5034620;28;20041;-73
2022/08/14 03:05:12;;;;;;;12.30;6.68;;;;;;;20.36;64.62;101001.97;5034684;28;20022;-73
2022/08/14 03:07:38;;;;;;;8.80;6.80;;;;;;;20.26;65.75;101011.31;5034512;28;20080;-74
2022/08/14 03:10:05;;;;;;;10.65;6.97;;;;;;;20.31;65.67;101007.94;5034480;28;20049;-73
2022/08/14 03:12:31;;;;;;;9.93;6.93;;;;;;;20.44;65.15;101014.66;5034592;28;20018;-73
2022/08/14 03:14:57;;;;;;;9.05;6.80;;;;;;;20.36;65.35;101008.00;5033108;28;20071;-73
2022/08/14 03:17:22;;;;;;;8.73;7.35;;;;;;;20.27;65.59;101009.47;5034484;28;20080;-73
2022/08/14 03:19:48;;;;;;;7.95;6.35;;;;;;;20.30;65.62;101006.34;5033123;28;20029;-73
2022/08/14 03:22:14;;;;;;;10.43;6.78;;;;;;;20.09;66.60;101012.44;5032940;28;20487;-73
2022/08/14 03:24:39;;;;;;;9.60;6.68;;;;;;;20.29;65.36;101004.78;5032907;28;20033;-73
2022/08/14 03:27:05;;;;;;;13.27;6.85;;;;;;;20.20;65.92;101001.81;5032968;28;20027;-73
2022/08/14 03:29:31;;;;;;;14.18;7.43;;;;;;;20.24;65.84;101002.09;5032886;28;20393;-73
2022/08/14 03:31:58;;;;;;;8.07;6.78;;;;;;;20.29;65.68;100996.91;5032890;28;20021;-72
2022/08/14 03:34:23;;;;;;;10.73;7.25;;;;;;;20.11;66.36;101003.28;5034218;28;20504;-73
2022/08/14 03:36:54;;;;;;;8.85;6.82;;;;;;;20.17;66.10;101004.09;5034007;28;20061;-73
2022/08/14 03:39:20;;;;;;;10.07;6.88;;;;;;;19.98;66.88;101001.00;5033948;28;20056;-73
2022/08/14 03:41:46;;;;;;;9.68;7.50;;;;;;;20.00;66.82;100993.69;5033833;28;20029;-73
2022/08/14 03:44:12;;;;;;;9.15;7.30;;;;;;;20.08;66.55;101000.31;5032773;28;20033;-73
2022/08/14 03:46:37;;;;;;;11.88;7.70;;;;;;;19.84;67.10;100992.69;5033826;28;20101;-73
2022/08/14 03:49:04;;;;;;;11.32;7.20;;;;;;;19.78;67.12;100997.09;5032612;28;20026;-73
2022/08/14 03:51:30;;;;;;;10.80;6.93;;;;;;;19.88;67.66;100993.81;5032525;28;20017;-73
2022/08/14 03:53:58;;;;;;;10.50;7.32;;;;;;;19.94;66.92;100992.03;5033725;28;20029;-73
2022/08/14 03:56:25;;;;;;;9.07;7.30;;;;;;;19.84;67.68;100990.88;5033816;28;20029;-73
2022/08/14 03:58:54;;;;;;;9.30;7.28;;;;;;;19.94;67.26;100992.03;5033703;28;20489;-73
2022/08/14 04:01:21;;;;;;;11.98;7.30;;;;;;;19.87;67.21;100984.34;5033844;28;20022;-73
2022/08/14 04:03:47;;;;;;;9.05;7.18;;;;;;;19.81;67.55;100988.72;5032635;28;20040;-73
2022/08/14 04:06:13;;;;;;;9.43;7.25;;;;;;;19.82;67.51;100979.03;5033767;28;20044;-73
2022/08/14 04:08:40;;;;;;;12.93;8.00;;;;;;;19.99;66.84;100987.63;5032423;28;20026;-73
2022/08/14 04:11:06;;;;;;;12.05;7.78;;;;;;;19.87;67.40;100986.97;5033607;28;20028;-73
2022/08/14 04:13:36;;;;;;;14.88;7.60;;;;;;;19.93;67.54;100987.81;5032489;28;20021;-73
2022/08/14 04:16:05;;;;;;;8.95;7.20;;;;;;;19.91;67.54;100988.09;5033796;28;20029;-73
2022/08/14 04:18:31;;;;;;;11.65;7.28;;;;;;;20.05;66.93;100985.88;5032610;28;20021;-73
2022/08/14 04:20:57;;;;;;;13.35;7.43;;;;;;;20.13;66.58;100982.03;5033103;28;20026;-72
2022/08/14 04:23:23;;;;;;;11.50;7.75;;;;;;;20.18;66.30;100985.50;5037046;28;20025;-72
2022/08/14 04:25:52;;;;;;;11.77;7.97;;;;;;;20.04;66.52;100973.78;5038920;28;20036;-73
2022/08/14 04:28:18;;;;;;;10.65;7.60;;;;;;;20.02;66.99;100976.69;5038291;28;20017;-73
2022/08/14 04:30:44;;;;;;;11.85;7.30;;;;;;;19.95;66.89;100973.44;5039644;28;20032;-73
2022/08/14 04:33:10;;;;;;;9.95;7.78;;;;;;;19.77;68.11;100973.75;5038806;28;20032;-73
2022/08/14 04:35:36;;;;;;;12.02;7.80;;;;;;;19.60;68.83;100971.94;5039025;28;20025;-74
2022/08/14 04:43:35;;;;;;;11.65;7.45;;;;;;;19.89;68.02;100968.38;5039173;28;20114;-73
2022/08/14 04:46:01;;;;;;;12.27;7.57;;;;;;;19.76;68.09;100967.69;5039436;28;20056;-74
2022/08/14 04:48:27;;;;;;;11.98;7.88;;;;;;;19.73;68.76;100970.00;5044480;28;20030;-75
2022/08/14 04:50:54;;;;;;;11.30;7.65;;;;;;;19.97;67.23;100968.75;5045090;28;20041;-75
2022/08/14 04:53:22;;;;;;;9.95;7.80;;;;;;;20.02;67.52;100979.31;5045659;28;20030;-75
2022/08/14 04:55:49;;;;;;;10.68;7.43;;;;;;;20.03;67.28;100973.00;5046750;28;20025;-73
2022/08/14 04:58:16;;;;;;;10.15;8.00;;;;;;;19.94;67.61;100969.25;5047538;28;20073;-74
2022/08/14 05:00:42;;;;;;;12.35;8.10;;;;;;;20.09;67.37;100966.00;5045328;28;20041;-74
2022/08/14 05:03:08;;;;;;;14.15;7.82;;;;;;;20.20;66.79;100967.69;5046646;28;20025;-76
2022/08/14 05:05:34;;;;;;;12.15;7.97;;;;;;;20.03;67.43;100965.13;5038645;28;20106;-74
2022/08/14 05:08:10;;;;;;;10.60;8.07;;;;;;;20.15;67.03;100965.00;5036460;28;20108;-73
2022/08/14 05:10:35;;;;;;;10.88;7.80;;;;;;;20.22;66.99;100962.19;5034909;28;20381;-73
2022/08/14 05:13:04;;;;;;;11.10;8.05;;;;;;;20.16;67.04;100963.97;5033146;28;20037;-73
2022/08/14 05:15:29;;;;;;;10.45;7.78;;;;;;;20.21;67.34;100957.97;5033804;28;20028;-74
2022/08/14 05:17:54;;;;;;;13.95;8.15;;;;;;;20.24;67.17;100955.66;5034109;28;20029;-74
2022/08/14 05:20:20;;;;;;;10.82;7.97;;;;;;;20.25;67.18;100953.81;5033885;28;20492;-73
2022/08/14 05:22:45;;;;;;;10.05;7.72;;;;;;;20.25;67.07;100952.00;5034913;28;20032;-74
2022/08/14 05:25:11;;;;;;;9.88;7.95;;;;;;;20.28;67.07;100956.75;5034433;28;20022;-74
2022/08/14 05:27:37;;;;;;;11.27;7.93;;;;;;;20.49;65.84;100949.09;5036135;28;20052;-74
2022/08/14 05:30:04;;;;;;;11.25;7.60;;;;;;;20.55;66.49;100950.75;5035270;28;20026;-73
2022/08/14 05:32:30;;;;;;;13.90;8.45;;;;;;;20.62;65.66;100945.28;5034511;28;20112;-75
2022/08/14 05:34:57;;;;;;;11.02;8.27;;;;;;;20.56;66.21;100936.56;5033554;28;20044;-74
2022/08/14 05:37:23;;;;;;;13.55;7.60;;;;;;;20.69;66.05;100944.03;5035409;28;20361;-74
2022/08/14 05:39:48;;;;;;;9.95;8.25;;;;;;;20.56;65.98;100936.56;5034313;28;20074;-75
2022/08/14 05:42:13;;;;;;;10.50;7.90;;;;;;;20.64;66.00;100937.94;5033276;28;20065;-71
2022/08/14 05:44:39;;;;;;;11.18;8.27;;;;;;;20.62;66.24;100940.81;5033053;28;20029;-73
2022/08/14 05:47:04;;;;;;;11.65;8.35;;;;;;;20.79;65.54;100945.16;5034364;28;20057;-73
2022/08/14 05:49:30;;;;;;;10.40;8.10;;;;;;;20.86;65.59;100924.72;5034848;28;20081;-73
2022/08/14 05:51:55;;;;;;;14.23;8.38;;;;;;;20.83;66.17;100935.72;5036257;28;20033;-73
2022/08/14 05:54:21;;;;;;;11.73;7.82;;;;;;;21.08;64.90;100928.03;5036152;28;20468;-73
2022/08/14 05:56:46;;;;;;;14.77;8.70;;;;;;;21.17;64.82;100928.34;5036071;28;20159;-72
2022/08/14 05:59:12;;;;;;;13.50;8.63;;;;;;;21.22;64.41;100923.13;5036240;28;20053;-73
2022/08/14 06:01:37;;;;;;;12.77;8.35;;;;;;;25.47;52.33;100927.28;5034662;28;20033;-73
2022/08/14 06:04:03;;;;;;;12.27;8.10;;;;;;;29.54;41.81;100924.63;5035856;28;20071;-74
2022/08/14 06:06:28;;;;;;;13.85;7.95;;;;;;;27.63;44.95;100931.47;5035947;28;20021;-74
2022/08/14 06:08:54;;;;;;;11.25;8.02;;;;;;;26.50;47.24;100930.91;5035720;28;20037;-75
2022/08/14 06:11:19;;;;;;;11.75;7.93;;;;;;;27.82;44.91;100926.84;5034475;28;20116;-73
2022/08/14 06:13:44;;;;;;;11.02;7.75;;;;;;;29.30;41.26;100933.03;5034330;28;20029;-72
2022/08/14 06:16:10;;;;;;;11.07;7.20;;;;;;;31.70;36.34;100925.13;5035660;28;20529;-75
2022/08/14 06:18:35;;;;;;;12.00;6.95;;;;;;;32.48;34.92;100923.66;5035581;28;20476;-75
2022/08/14 06:21:02;;;;;;;8.98;7.05;;;;;;;32.29;34.77;100921.50;5035486;28;20022;-72
2022/08/14 06:23:28;;;;;;;9.25;6.72;;;;;;;32.92;33.57;100925.84;5035366;28;20037;-73
2022/08/14 06:25:53;;;;;;;11.38;6.95;;;;;;;32.57;34.19;100920.91;5034150;28;20026;-73
2022/08/14 06:28:22;;;;;;;9.35;6.80;;;;;;;32.40;35.11;100932.56;5035336;28;20108;-73
2022/08/14 06:30:47;;;;;;;9.05;6.60;;;;;;;33.18;33.48;100923.63;5035272;28;20105;-73
2022/08/14 06:33:14;;;;;;;10.23;6.35;;;;;;;34.13;32.01;100921.34;5035270;28;20121;-73
2022/08/14 06:35:39;;;;;;;9.38;6.63;;;;;;;34.07;32.06;100919.28;5035365;28;20030;-73
2022/08/14 06:38:05;;;;;;;9.68;6.65;;;;;;;33.80;32.01;100918.13;5033806;28;20021;-73
2022/08/14 06:40:33;;;;;;;10.00;6.68;;;;;;;33.48;32.30;100917.97;5035105;28;20033;-73
2022/08/14 06:43:03;;;;;;;8.18;6.50;;;;;;;33.64;32.36;100924.22;5034020;28;20026;-75
2022/08/14 06:45:29;;;;;;;11.15;6.65;;;;;;;34.41;31.88;100927.78;5035024;28;20477;-72
2022/08/14 06:47:55;;;;;;;9.00;6.32;;;;;;;34.70;31.31;100922.03;5034990;28;20534;-73
2022/08/14 06:50:22;;;;;;;9.33;6.70;;;;;;;33.78;32.49;100921.16;5034794;28;20054;-74
2022/08/14 06:52:48;;;;;;;8.60;6.38;;;;;;;34.03;32.21;100929.09;5033638;28;20751;-73
2022/08/14 06:55:18;;;;;;;10.38;6.47;;;;;;;34.34;31.85;100923.03;5033737;28;20559;-73
2022/08/14 06:57:45;;;;;;;9.45;6.90;;;;;;;34.78;31.26;100928.31;5033582;28;20025;-73
2022/08/14 07:00:17;;;;;;;11.32;6.50;;;;;;;35.17;30.24;100923.88;5033400;28;20026;-73
2022/08/14 07:05:46;;;;;;;11.15;6.75;;;;;;;34.87;30.53;100915.50;5034976;28;20036;-74
2022/08/14 07:08:17;;;;;;;8.55;6.60;;;;;;;35.92;29.40;100911.97;5033391;28;20030;-74
2022/08/14 07:10:48;;;;;;;11.27;6.20;;;;;;;35.79;29.18;100910.56;5034553;28;20029;-74
2022/08/14 07:13:14;;;;;;;;;;;;;;;35.72;29.25;100906.97;5033694;28;20045;-74
2022/08/14 07:15:41;;;;;;;10.60;6.28;;;;;;;36.05;28.72;100895.69;5034434;28;19917;-74
2022/08/14 07:18:07;;;;;;;12.55;6.32;;;;;;;36.91;27.99;100903.22;5033074;28;20013;-74
2022/08/14 07:20:33;;;;;;;8.48;6.07;;;;;;;35.70;28.96;100904.63;5033135;28;20017;-74
2022/08/14 07:23:03;;;;;;;8.63;6.05;;;;;;;36.17;28.65;100895.53;5034299;28;20528;-74
2022/08/14 07:25:29;;;;;;;8.70;6.20;;;;;;;36.15;28.70;100893.19;5032913;28;20043;-74
2022/08/14 07:27:55;;;;;;;10.40;6.07;;;;;;;35.95;28.65;100897.03;5034223;28;20129;-73
2022/08/14 07:30:21;;;;;;;11.13;6.50;;;;;;;34.77;30.54;100900.72;5034233;28;20105;-73
2022/08/14 07:32:46;;;;;;;8.63;5.97;;;;;;;34.06;31.05;100897.03;5034046;28;20017;-73
2022/08/14 07:35:11;;;;;;;9.23;5.97;;;;;;;35.17;30.12;100901.63;5034163;28;20369;-73
2022/08/14 07:37:37;;;;;;;11.10;6.00;;;;;;;35.07;29.76;100891.41;5034116;28;20033;-73
2022/08/14 07:40:04;;;;;;;9.55;5.85;;;;;;;36.08;28.42;100892.28;5032759;28;20744;-73
2022/08/14 07:42:29;;;;;;;7.85;5.80;;;;;;;35.00;29.88;100886.66;5034002;28;20029;-73
2022/08/14 07:44:55;;;;;;;8.45;6.10;;;;;;;35.40;29.65;100889.06;5033738;28;20057;-73
2022/08/14 07:47:20;;;;;;;10.63;6.10;;;;;;;35.64;29.20;100889.91;5033974;28;20112;-73
2022/08/14 07:49:57;;;;;;;11.53;6.00;;;;;;;34.84;30.04;100886.66;5033700;28;20052;-73
2022/08/14 07:52:23;;;;;;;8.15;6.28;;;;;;;35.03;29.87;100892.09;5032492;28;20763;-73
2022/08/14 07:54:49;;;;;;;7.20;5.72;;;;;;;33.35;33.01;100892.38;5033615;28;20029;-73
2022/08/14 07:57:16;;;;;;;9.55;6.20;;;;;;;33.88;31.79;100887.72;5032428;28;20468;-73
2022/08/14 07:59:41;;;;;;;9.00;6.40;;;;;;;32.37;34.36;100885.09;5033677;28;20025;-73
2022/08/14 08:02:09;;;;;;;11.57;6.78;;;;;;;32.40;34.15;100891.66;5032249;28;20037;-73
2022/08/14 08:04:38;;;;;;;12.13;6.40;;;;;;;32.95;33.78;100887.72;5032302;28;20124;-73
2022/08/14 08:07:04;;;;;;;8.95;5.97;;;;;;;31.96;35.29;100885.97;5032253;28;20029;-72
2022/08/14 08:09:31;;;;;;;8.98;6.18;;;;;;;31.77;35.61;100884.56;5032793;28;20029;-73
2022/08/14 08:11:57;;;;;;;7.55;6.32;;;;;;;30.66;38.08;100882.22;5033501;28;20029;-74
2022/08/14 08:14:24;;;;;;;8.80;6.28;;;;;;;30.29;38.86;100879.19;5033438;28;20026;-73
2022/08/14 08:16:49;;;;;;;12.65;6.03;;;;;;;31.27;37.34;100877.34;5033369;28;20029;-73
2022/08/14 08:19:17;;;;;;;11.52;6.05;;;;;;;31.21;37.17;100874.09;5033243;28;20151;-73
2022/08/14 08:21:44;;;;;;;11.68;6.07;;;;;;;31.02;37.40;100873.75;5033306;28;20473;-73
2022/08/14 08:24:10;;;;;;;11.70;6.07;;;;;;;30.65;38.28;100878.00;5033299;28;20101;-72
2022/08/14 08:26:35;;;;;;;10.73;6.57;;;;;;;29.56;39.98;100871.06;5033264;28;20550;-72
2022/08/14 08:29:00;;;;;;;11.10;6.65;;;;;;;30.05;39.03;100875.13;5031978;28;20033;-73
2022/08/14 08:31:26;;;;;;;10.30;6.13;;;;;;;29.91;40.09;100861.22;5031940;28;20029;-73
2022/08/14 08:33:52;;;;;;;9.85;6.05;;;;;;;30.71;37.81;100866.03;5031956;28;20029;-73
2022/08/14 08:36:19;;;;;;;8.40;6.10;;;;;;;31.42;37.20;100857.34;5031903;28;20167;-73
2022/08/14 08:38:47;;;;;;;10.27;6.20;;;;;;;31.50;37.26;100850.38;5031931;28;20021;-71
2022/08/14 08:41:12;;;;;;;13.68;6.55;;;;;;;30.64;38.09;100853.19;5031807;28;20034;-71
2022/08/14 08:43:39;;;;;;;9.77;5.93;;;;;;;31.30;36.94;100846.56;5031923;28;20021;-72
2022/08/14 08:46:11;;;;;;;9.02;6.47;;;;;;;32.35;35.55;100847.19;5033261;28;20203;-71
2022/08/14 08:48:47;;;;;;;10.73;5.78;;;;;;;31.07;37.16;100854.09;5033081;28;20030;-72
2022/08/14 08:51:24;;;;;;;11.23;6.32;;;;;;;31.29;36.87;100853.78;5031596;28;20046;-71
2022/08/14 08:54:06;;;;;;;7.78;6.07;;;;;;;31.83;36.13;100847.72;5031612;28;20036;-72
2022/08/14 08:56:37;;;;;;;7.05;5.97;;;;;;;31.79;35.84;100852.16;5032897;28;20033;-72
2022/08/14 08:59:23;;;;;;;10.98;5.90;;;;;;;31.55;35.88;100856.28;5031652;28;20080;-72
2022/08/14 09:02:17;;;;;;;6.85;5.65;;;;;;;31.29;37.16;100853.78;5032871;28;20148;-72
2022/08/14 09:04:43;;;;;;;7.75;5.38;;;;;;;31.75;36.41;100853.94;5028408;28;20041;-72
2022/08/14 09:07:09;;;;;;;8.45;6.15;;;;;;;31.43;36.33;100851.69;5032854;28;20473;-72
2022/08/14 09:09:50;;;;;;;12.63;5.80;;;;;;;31.43;36.53;100843.66;5031608;28;20025;-72
2022/08/14 09:12:16;;;;;;;8.52;5.68;;;;;;;32.38;35.28;100854.56;5031449;28;20056;-72
2022/08/14 09:14:41;;;;;;;8.27;5.13;;;;;;;32.88;34.43;100841.97;5031503;28;20485;-72
2022/08/14 09:17:07;;;;;;;6.63;5.10;;;;;;;33.36;33.18;100832.31;5030633;28;20022;-72
2022/08/14 09:19:35;;;;;;;7.35;5.07;;;;;;;33.04;33.34;100837.53;5031516;28;20078;-72
2022/08/14 09:22:01;;;;;;;10.30;5.20;;;;;;;31.18;35.57;100831.25;5036067;28;20393;-72
2022/08/14 09:24:28;;;;;;;7.72;5.40;;;;;;;32.18;35.12;100834.81;5036436;28;20477;-72
2022/08/14 09:26:53;;;;;;;12.60;5.20;;;;;;;32.66;34.22;100814.59;5036417;28;20025;-72
2022/08/14 09:29:19;;;;;;;9.70;5.20;;;;;;;32.61;34.85;100827.41;5036401;28;20025;-73
2022/08/14 09:31:48;;;;;;;8.35;5.10;;;;;;;32.70;33.90;100825.41;5035252;28;20335;-73
2022/08/14 09:34:30;;;;;;;6.55;4.60;;;;;;;32.42;33.94;100833.28;5036247;28;20033;-72
2022/08/14 09:37:19;;;;;;;8.32;4.78;;;;;;;31.91;34.52;100838.88;5036486;28;20052;-72
2022/08/14 09:40:09;;;;;;;5.82;4.55;;;;;;;32.32;34.51;100821.91;5035869;28;20025;-72
2022/08/14 09:43:01;;;;;;;8.52;5.18;;;;;;;32.49;32.80;100825.53;5036077;28;20040;-72
2022/08/14 09:45:34;;;;;;;8.63;4.90;;;;;;;32.28;34.34;100818.34;5036274;28;20027;-73
2022/08/14 09:47:59;;;;;;;9.70;4.85;;;;;;;32.46;34.71;100823.53;5036038;28;20029;-73
2022/08/14 09:50:31;;;;;;;8.43;4.95;;;;;;;31.54;36.13;100816.56;5036012;28;20124;-72
2022/08/14 09:53:01;;;;;;;;;;;;;;;32.51;34.31;100807.22;5035098;28;20366;-71
2022/08/14 09:55:31;;;;;;;7.45;5.30;;;;;;;33.38;33.12;100800.63;5034645;28;20284;-72
2022/08/14 09:58:19;;;;;;;9.40;5.00;;;;;;;32.20;35.15;100792.50;5034554;28;20029;-72
2022/08/14 10:00:52;;;;;;;8.98;5.00;;;;;;;33.01;33.91;100796.16;5035826;28;20022;-72
2022/08/14 10:03:32;;;;;;;10.23;5.00;;;;;;;32.67;34.38;100783.25;5034567;28;20461;-72
2022/08/14 10:06:11;;;;;;;8.18;5.50;;;;;;;32.52;34.58;100782.06;5035752;28;20079;-72
2022/08/14 10:08:50;;;;;;;5.53;4.93;;;;;;;32.38;33.94;100776.25;5035689;28;20063;-72
2022/08/14 10:11:26;;;;;;;9.73;4.53;;;;;;;34.36;32.28;100774.03;5035658;28;20071;-72
2022/08/14 10:13:53;;;;;;;7.63;4.90;;;;;;;34.37;31.88;100770.22;5034285;28;20500;-72
2022/08/14 10:16:23;;;;;;;6.90;4.70;;;;;;;35.18;29.87;100776.94;5034173;28;20021;-72
2022/08/14 10:18:50;;;;;;;8.70;4.40;;;;;;;34.42;30.44;100771.09;5034238;28;20384;-72
2022/08/14 10:21:17;;;;;;;8.40;4.85;;;;;;;32.58;32.86;100762.00;5035415;28;20025;-72
2022/08/14 10:23:51;;;;;;;10.43;5.38;;;;;;;32.53;33.30;100764.88;5035477;28;20384;-72
2022/08/14 10:26:18;;;;;;;6.95;4.88;;;;;;;32.91;33.74;100755.66;5035460;28;20374;-72
2022/08/14 10:28:46;;;;;;;8.18;4.93;;;;;;;32.57;33.59;100760.41;5035348;28;20024;-71
2022/08/14 10:31:17;;;;;;;6.68;4.63;;;;;;;32.55;33.10;100755.41;5035326;28;20026;-72
2022/08/14 10:33:45;;;;;;;6.73;4.50;;;;;;;33.07;31.61;100747.75;5033179;28;20030;-71
2022/08/14 10:36:10;;;;;;;7.75;5.15;;;;;;;33.53;31.73;100742.88;5035179;28;20026;-71
2022/08/14 10:38:35;;;;;;;9.55;5.07;;;;;;;33.76;32.41;100743.09;5033853;28;20029;-71
2022/08/14 10:41:12;;;;;;;6.53;4.80;;;;;;;35.01;30.01;100732.47;5034993;28;20033;-71
2022/08/14 10:43:41;;;;;;;8.60;4.82;;;;;;;34.03;30.61;100734.16;5034947;28;20763;-72
2022/08/14 10:46:17;;;;;;;7.68;4.60;;;;;;;33.81;30.96;100732.88;5034965;28;20489;-71
2022/08/14 10:49:01;;;;;;;6.07;4.35;;;;;;;33.84;30.57;100734.09;5033636;28;20033;-73
2022/08/14 10:51:33;;;;;;;10.27;4.30;;;;;;;34.04;29.47;100737.66;5033706;28;20120;-72
2022/08/14 10:54:04;;;;;;;;;;;;;;;34.60;30.10;100726.66;5035308;28;20021;-72
2022/08/14 10:56:32;;;;;;;10.98;4.60;;;;;;;35.13;29.09;100727.00;5034795;28;19908;-71
2022/08/14 10:59:07;;;;;;;9.73;5.25;;;;;;;34.37;30.68;100718.47;5034771;28;20386;-71
2022/08/14 11:01:34;;;;;;;8.93;4.40;;;;;;;34.74;29.92;100723.50;5034520;28;20571;-71
2022/08/14 11:04:01;;;;;;;7.15;4.15;;;;;;;34.55;29.06;100721.56;5034708;28;20029;-71
2022/08/14 11:06:27;;;;;;;8.38;4.22;;;;;;;34.89;28.84;100721.88;5034684;28;20033;-71
2022/08/14 11:08:54;;;;;;;7.63;4.13;;;;;;;35.16;28.78;100695.94;5034664;28;20025;-71
2022/08/14 11:11:27;;;;;;;5.18;4.05;;;;;;;36.03;27.80;100712.41;5034537;28;20029;-72
2022/08/14 11:13:56;;;;;;;7.30;4.07;;;;;;;34.65;28.39;100707.63;5034491;28;20502;-72
2022/08/14 11:16:24;;;;;;;7.72;4.20;;;;;;;34.50;28.81;100697.66;5033215;28;20036;-72
2022/08/14 11:18:50;;;;;;;5.25;3.72;;;;;;;35.47;27.05;100701.09;5034374;28;20469;-72
2022/08/14 11:21:19;;;;;;;6.90;3.80;;;;;;;35.26;27.35;100701.53;5034105;28;20024;-72
2022/08/14 11:23:46;;;;;;;6.22;3.67;;;;;;;34.64;27.45;100694.53;5034303;28;20040;-72
2022/08/14 11:26:13;;;;;;;8.80;3.85;;;;;;;34.86;27.21;100693.84;5034400;28;20026;-73
2022/08/14 11:28:42;;;;;;;10.05;3.88;;;;;;;36.31;26.41;100696.69;5034245;28;20104;-73
2022/08/14 11:31:09;;;;;;;7.28;3.63;;;;;;;34.42;27.51;100691.41;5034139;28;20029;-72
2022/08/14 11:33:37;;;;;;;9.30;3.40;;;;;;;34.28;27.32;100693.78;5034103;28;20496;-72
2022/08/14 11:36:05;;;;;;;7.93;3.60;;;;;;;35.97;25.49;100700.41;5034084;28;20052;-72